sensor_id;sensor_type;location;lat;lon;timestamp;temperature;humidity
67358;HTU21D;54240;51.096;5.878;2023-06-04T00:01:07;15.22;-6.00
67358;HTU21D;54240;51.096;5.878;2023-06-04T00:03:34;15.22;-6.00
67358;HTU21D;54240;51.096;5.878;2023-06-04T00:06:00;15.25;-6.00
67358;HTU21D;54240;51.096;5.878;2023-06-04T00:08:26;15.17;-6.00
67358;HTU21D;54240;51.096;5.878;2023-06-04T00:10:52;15.12;-6.00
67358;HTU21D;54240;51.096;5.878;2023-06-04T00:13:18;15.09;-6.00
67358;HTU21D;54240;51.096;5.878;2023-06-04T00:15:44;15.06;-6.00
67358;HTU21D;54240;51.096;5.878;2023-06-04T00:18:10;15.00;-6.00
67358;HTU21D;54240;51.096;5.878;2023-06-04T00:20:39;14.95;-6.00
67358;HTU21D;54240;51.096;5.878;2023-06-04T00:23:05;14.88;-6.00
67358;HTU21D;54240;51.096;5.878;2023-06-04T00:25:31;14.83;-6.00
67358;HTU21D;54240;51.096;5.878;2023-06-04T00:27:57;14.79;-6.00
67358;HTU21D;54240;51.096;5.878;2023-06-04T00:30:23;14.74;-6.00
67358;HTU21D;54240;51.096;5.878;2023-06-04T00:32:49;14.71;-6.00
67358;HTU21D;54240;51.096;5.878;2023-06-04T00:35:15;14.66;-6.00
67358;HTU21D;54240;51.096;5.878;2023-06-04T00:37:41;14.63;-6.00
67358;HTU21D;54240;51.096;5.878;2023-06-04T00:40:07;14.59;-6.00
67358;HTU21D;54240;51.096;5.878;2023-06-04T00:42:33;14.54;-6.00
67358;HTU21D;54240;51.096;5.878;2023-06-04T00:45:00;14.49;-6.00
67358;HTU21D;54240;51.096;5.878;2023-06-04T00:47:26;14.47;-6.00
67358;HTU21D;54240;51.096;5.878;2023-06-04T00:49:56;14.43;-6.00
67358;HTU21D;54240;51.096;5.878;2023-06-04T00:52:24;14.39;-6.00
67358;HTU21D;54240;51.096;5.878;2023-06-04T00:54:52;14.37;-6.00
67358;HTU21D;54240;51.096;5.878;2023-06-04T00:57:21;14.34;-6.00
67358;HTU21D;54240;51.096;5.878;2023-06-04T00:59:48;14.29;-6.00
67358;HTU21D;54240;51.096;5.878;2023-06-04T01:02:23;14.25;-6.00
67358;HTU21D;54240;51.096;5.878;2023-06-04T01:05:24;14.20;-6.00
67358;HTU21D;54240;51.096;5.878;2023-06-04T01:07:53;14.13;-6.00
67358;HTU21D;54240;51.096;5.878;2023-06-04T01:10:19;14.08;-6.00
67358;HTU21D;54240;51.096;5.878;2023-06-04T01:12:45;14.06;-6.00
67358;HTU21D;54240;51.096;5.878;2023-06-04T01:15:13;14.04;-6.00
67358;HTU21D;54240;51.096;5.878;2023-06-04T01:17:41;14.00;-6.00
67358;HTU21D;54240;51.096;5.878;2023-06-04T01:20:28;13.97;-6.00
67358;HTU21D;54240;51.096;5.878;2023-06-04T01:23:25;13.94;-6.00
67358;HTU21D;54240;51.096;5.878;2023-06-04T01:25:55;13.90;-6.00
67358;HTU21D;54240;51.096;5.878;2023-06-04T01:28:24;13.88;-6.00
67358;HTU21D;54240;51.096;5.878;2023-06-04T01:30:53;13.83;-6.00
67358;HTU21D;54240;51.096;5.878;2023-06-04T01:33:22;13.78;-6.00
67358;HTU21D;54240;51.096;5.878;2023-06-04T01:35:49;13.75;-6.00
67358;HTU21D;54240;51.096;5.878;2023-06-04T01:38:15;13.70;-6.00
67358;HTU21D;54240;51.096;5.878;2023-06-04T01:40:41;13.66;-6.00
67358;HTU21D;54240;51.096;5.878;2023-06-04T01:43:08;13.62;-6.00
67358;HTU21D;54240;51.096;5.878;2023-06-04T01:45:34;13.58;-6.00
67358;HTU21D;54240;51.096;5.878;2023-06-04T01:48:05;13.55;-6.00
67358;HTU21D;54240;51.096;5.878;2023-06-04T01:50:31;13.52;-6.00
67358;HTU21D;54240;51.096;5.878;2023-06-04T01:52:58;13.51;-6.00
67358;HTU21D;54240;51.096;5.878;2023-06-04T01:55:25;13.45;-6.00
67358;HTU21D;54240;51.096;5.878;2023-06-04T01:57:51;13.43;-6.00
67358;HTU21D;54240;51.096;5.878;2023-06-04T02:00:18;13.38;-6.00
67358;HTU21D;54240;51.096;5.878;2023-06-04T02:02:45;13.35;-6.00
67358;HTU21D;54240;51.096;5.878;2023-06-04T02:05:14;13.32;-6.00
67358;HTU21D;54240;51.096;5.878;2023-06-04T02:07:43;13.29;-6.00
67358;HTU21D;54240;51.096;5.878;2023-06-04T02:10:16;13.25;-6.00
67358;HTU21D;54240;51.096;5.878;2023-06-04T02:13:00;13.21;-6.00
67358;HTU21D;54240;51.096;5.878;2023-06-04T02:15:27;13.18;-6.00
67358;HTU21D;54240;51.096;5.878;2023-06-04T02:17:57;13.14;-6.00
67358;HTU21D;54240;51.096;5.878;2023-06-04T02:20:28;13.10;-6.00
67358;HTU21D;54240;51.096;5.878;2023-06-04T02:22:55;13.05;-6.00
67358;HTU21D;54240;51.096;5.878;2023-06-04T02:25:22;13.03;-6.00
67358;HTU21D;54240;51.096;5.878;2023-06-04T02:27:49;13.00;-6.00
67358;HTU21D;54240;51.096;5.878;2023-06-04T02:30:15;12.96;-6.00
67358;HTU21D;54240;51.096;5.878;2023-06-04T02:32:43;12.94;-6.00
67358;HTU21D;54240;51.096;5.878;2023-06-04T02:35:10;12.90;-6.00
67358;HTU21D;54240;51.096;5.878;2023-06-04T02:37:36;12.86;-6.00
67358;HTU21D;54240;51.096;5.878;2023-06-04T02:40:03;12.81;-6.00
67358;HTU21D;54240;51.096;5.878;2023-06-04T02:42:29;12.78;-6.00
67358;HTU21D;54240;51.096;5.878;2023-06-04T02:44:55;12.76;-6.00
67358;HTU21D;54240;51.096;5.878;2023-06-04T02:47:22;12.71;-6.00
67358;HTU21D;54240;51.096;5.878;2023-06-04T02:49:48;12.64;-6.00
67358;HTU21D;54240;51.096;5.878;2023-06-04T02:52:14;12.62;-6.00
67358;HTU21D;54240;51.096;5.878;2023-06-04T02:54:40;12.60;-6.00
67358;HTU21D;54240;51.096;5.878;2023-06-04T02:57:06;12.56;-6.00
67358;HTU21D;54240;51.096;5.878;2023-06-04T02:59:34;12.53;-6.00
67358;HTU21D;54240;51.096;5.878;2023-06-04T03:02:00;12.47;-6.00
67358;HTU21D;54240;51.096;5.878;2023-06-04T03:04:26;12.48;-6.00
67358;HTU21D;54240;51.096;5.878;2023-06-04T03:07:01;12.48;-6.00
67358;HTU21D;54240;51.096;5.878;2023-06-04T03:09:29;12.46;-6.00
67358;HTU21D;54240;51.096;5.878;2023-06-04T03:11:59;12.43;-6.00
67358;HTU21D;54240;51.096;5.878;2023-06-04T03:14:26;12.42;-6.00
67358;HTU21D;54240;51.096;5.878;2023-06-04T03:16:59;12.36;-6.00
67358;HTU21D;54240;51.096;5.878;2023-06-04T03:19:27;12.40;-6.00
67358;HTU21D;54240;51.096;5.878;2023-06-04T03:21:53;12.37;-6.00
67358;HTU21D;54240;51.096;5.878;2023-06-04T03:24:20;12.34;-6.00
67358;HTU21D;54240;51.096;5.878;2023-06-04T03:26:46;12.31;-6.00
67358;HTU21D;54240;51.096;5.878;2023-06-04T03:29:12;12.29;-6.00
67358;HTU21D;54240;51.096;5.878;2023-06-04T03:31:39;12.28;-6.00
67358;HTU21D;54240;51.096;5.878;2023-06-04T03:34:06;12.25;-6.00
67358;HTU21D;54240;51.096;5.878;2023-06-04T03:36:31;12.29;-6.00
67358;HTU21D;54240;51.096;5.878;2023-06-04T03:38:58;12.29;-6.00
67358;HTU21D;54240;51.096;5.878;2023-06-04T03:41:24;12.30;-6.00
67358;HTU21D;54240;51.096;5.878;2023-06-04T03:43:52;12.30;-6.00
67358;HTU21D;54240;51.096;5.878;2023-06-04T03:46:19;12.28;-6.00
67358;HTU21D;54240;51.096;5.878;2023-06-04T03:48:46;12.27;-6.00
67358;HTU21D;54240;51.096;5.878;2023-06-04T03:51:12;12.25;-6.00
67358;HTU21D;54240;51.096;5.878;2023-06-04T03:53:38;12.22;-6.00
67358;HTU21D;54240;51.096;5.878;2023-06-04T03:56:05;12.22;-6.00
67358;HTU21D;54240;51.096;5.878;2023-06-04T03:58:31;12.21;-6.00
67358;HTU21D;54240;51.096;5.878;2023-06-04T04:00:59;12.23;-6.00
67358;HTU21D;54240;51.096;5.878;2023-06-04T04:03:27;12.15;-6.00
67358;HTU21D;54240;51.096;5.878;2023-06-04T04:05:58;12.21;-6.00
67358;HTU21D;54240;51.096;5.878;2023-06-04T04:08:24;12.20;-6.00
67358;HTU21D;54240;51.096;5.878;2023-06-04T04:10:51;12.25;-6.00
67358;HTU21D;54240;51.096;5.878;2023-06-04T04:13:17;12.27;-6.00
67358;HTU21D;54240;51.096;5.878;2023-06-04T04:15:43;12.26;-6.00
67358;HTU21D;54240;51.096;5.878;2023-06-04T04:18:11;12.30;-6.00
67358;HTU21D;54240;51.096;5.878;2023-06-04T04:20:37;12.31;-6.00
67358;HTU21D;54240;51.096;5.878;2023-06-04T04:23:07;12.35;-6.00
67358;HTU21D;54240;51.096;5.878;2023-06-04T04:25:35;12.38;-6.00
67358;HTU21D;54240;51.096;5.878;2023-06-04T04:28:04;12.38;-6.00
67358;HTU21D;54240;51.096;5.878;2023-06-04T04:30:36;12.42;-6.00
67358;HTU21D;54240;51.096;5.878;2023-06-04T04:33:04;12.46;-6.00
67358;HTU21D;54240;51.096;5.878;2023-06-04T04:35:38;12.53;-6.00
67358;HTU21D;54240;51.096;5.878;2023-06-04T04:38:05;12.50;-6.00
67358;HTU21D;54240;51.096;5.878;2023-06-04T04:40:39;12.57;-6.00
67358;HTU21D;54240;51.096;5.878;2023-06-04T04:43:07;12.64;-6.00
67358;HTU21D;54240;51.096;5.878;2023-06-04T04:45:34;12.72;-6.00
67358;HTU21D;54240;51.096;5.878;2023-06-04T04:48:03;12.72;-6.00
67358;HTU21D;54240;51.096;5.878;2023-06-04T04:50:29;12.73;-6.00
67358;HTU21D;54240;51.096;5.878;2023-06-04T04:52:58;12.78;-6.00
67358;HTU21D;54240;51.096;5.878;2023-06-04T04:55:25;12.78;-6.00
67358;HTU21D;54240;51.096;5.878;2023-06-04T04:57:52;12.82;-6.00
67358;HTU21D;54240;51.096;5.878;2023-06-04T05:00:19;12.76;-6.00
67358;HTU21D;54240;51.096;5.878;2023-06-04T05:02:49;12.81;-6.00
67358;HTU21D;54240;51.096;5.878;2023-06-04T05:05:15;12.90;-6.00
67358;HTU21D;54240;51.096;5.878;2023-06-04T05:07:42;12.99;-6.00
67358;HTU21D;54240;51.096;5.878;2023-06-04T05:10:09;13.02;-6.00
67358;HTU21D;54240;51.096;5.878;2023-06-04T05:12:36;13.16;-6.00
67358;HTU21D;54240;51.096;5.878;2023-06-04T05:15:06;13.25;-6.00
67358;HTU21D;54240;51.096;5.878;2023-06-04T05:17:33;13.23;-6.00
67358;HTU21D;54240;51.096;5.878;2023-06-04T05:20:06;13.24;-6.00
67358;HTU21D;54240;51.096;5.878;2023-06-04T05:22:35;13.27;-6.00
67358;HTU21D;54240;51.096;5.878;2023-06-04T05:25:02;13.40;-6.00
67358;HTU21D;54240;51.096;5.878;2023-06-04T05:27:28;13.47;-6.00
67358;HTU21D;54240;51.096;5.878;2023-06-04T05:29:54;13.56;-6.00
67358;HTU21D;54240;51.096;5.878;2023-06-04T05:32:20;13.59;-6.00
67358;HTU21D;54240;51.096;5.878;2023-06-04T05:34:49;13.69;-6.00
67358;HTU21D;54240;51.096;5.878;2023-06-04T05:37:15;13.75;-6.00
67358;HTU21D;54240;51.096;5.878;2023-06-04T05:39:44;13.78;-6.00
67358;HTU21D;54240;51.096;5.878;2023-06-04T05:42:13;13.85;-6.00
67358;HTU21D;54240;51.096;5.878;2023-06-04T05:44:41;13.97;-6.00
67358;HTU21D;54240;51.096;5.878;2023-06-04T05:47:09;13.99;-6.00
67358;HTU21D;54240;51.096;5.878;2023-06-04T05:49:35;14.11;-6.00
67358;HTU21D;54240;51.096;5.878;2023-06-04T05:52:01;14.25;-6.00
67358;HTU21D;54240;51.096;5.878;2023-06-04T05:54:29;14.36;-6.00
67358;HTU21D;54240;51.096;5.878;2023-06-04T05:56:55;14.44;-6.00
67358;HTU21D;54240;51.096;5.878;2023-06-04T05:59:22;14.57;-6.00
67358;HTU21D;54240;51.096;5.878;2023-06-04T06:01:49;14.70;-6.00
67358;HTU21D;54240;51.096;5.878;2023-06-04T06:04:15;14.85;-6.00
67358;HTU21D;54240;51.096;5.878;2023-06-04T06:06:43;14.97;-6.00
67358;HTU21D;54240;51.096;5.878;2023-06-04T06:09:15;15.02;-6.00
67358;HTU21D;54240;51.096;5.878;2023-06-04T06:11:42;15.08;-6.00
67358;HTU21D;54240;51.096;5.878;2023-06-04T06:14:08;15.14;-6.00
67358;HTU21D;54240;51.096;5.878;2023-06-04T06:16:34;15.29;-6.00
67358;HTU21D;54240;51.096;5.878;2023-06-04T06:19:01;15.41;-6.00
67358;HTU21D;54240;51.096;5.878;2023-06-04T06:21:27;15.51;-6.00
67358;HTU21D;54240;51.096;5.878;2023-06-04T06:23:54;15.51;-6.00
67358;HTU21D;54240;51.096;5.878;2023-06-04T06:26:20;15.51;-6.00
67358;HTU21D;54240;51.096;5.878;2023-06-04T06:28:51;15.57;-6.00
67358;HTU21D;54240;51.096;5.878;2023-06-04T06:31:17;15.69;-6.00
67358;HTU21D;54240;51.096;5.878;2023-06-04T06:33:43;15.68;-6.00
67358;HTU21D;54240;51.096;5.878;2023-06-04T06:36:10;15.84;-6.00
67358;HTU21D;54240;51.096;5.878;2023-06-04T06:38:39;15.97;-6.00
67358;HTU21D;54240;51.096;5.878;2023-06-04T06:41:06;16.06;-6.00
67358;HTU21D;54240;51.096;5.878;2023-06-04T06:43:32;16.19;-6.00
67358;HTU21D;54240;51.096;5.878;2023-06-04T06:45:59;16.37;-6.00
67358;HTU21D;54240;51.096;5.878;2023-06-04T06:48:25;16.55;-6.00
67358;HTU21D;54240;51.096;5.878;2023-06-04T06:50:51;16.64;-6.00
67358;HTU21D;54240;51.096;5.878;2023-06-04T06:53:17;16.77;-6.00
67358;HTU21D;54240;51.096;5.878;2023-06-04T06:55:43;16.94;-6.00
67358;HTU21D;54240;51.096;5.878;2023-06-04T06:58:09;17.08;-6.00
67358;HTU21D;54240;51.096;5.878;2023-06-04T07:00:35;17.20;-6.00
67358;HTU21D;54240;51.096;5.878;2023-06-04T07:03:01;17.36;-6.00
67358;HTU21D;54240;51.096;5.878;2023-06-04T07:05:27;17.32;-6.00
67358;HTU21D;54240;51.096;5.878;2023-06-04T07:07:52;17.44;-6.00
67358;HTU21D;54240;51.096;5.878;2023-06-04T07:10:20;17.67;-6.00
67358;HTU21D;54240;51.096;5.878;2023-06-04T07:12:45;17.93;-6.00
67358;HTU21D;54240;51.096;5.878;2023-06-04T07:15:11;18.19;-6.00
67358;HTU21D;54240;51.096;5.878;2023-06-04T07:17:38;18.39;-6.00
67358;HTU21D;54240;51.096;5.878;2023-06-04T07:20:04;18.44;-6.00
67358;HTU21D;54240;51.096;5.878;2023-06-04T07:22:32;18.52;-6.00
67358;HTU21D;54240;51.096;5.878;2023-06-04T07:24:58;18.59;-6.00
67358;HTU21D;54240;51.096;5.878;2023-06-04T07:27:25;18.58;-6.00
67358;HTU21D;54240;51.096;5.878;2023-06-04T07:29:52;18.79;-6.00
67358;HTU21D;54240;51.096;5.878;2023-06-04T07:32:18;19.02;-6.00
67358;HTU21D;54240;51.096;5.878;2023-06-04T07:34:44;19.18;-6.00
67358;HTU21D;54240;51.096;5.878;2023-06-04T07:37:10;19.57;-6.00
67358;HTU21D;54240;51.096;5.878;2023-06-04T07:39:39;19.68;-6.00
67358;HTU21D;54240;51.096;5.878;2023-06-04T07:42:06;19.94;-6.00
67358;HTU21D;54240;51.096;5.878;2023-06-04T07:44:33;20.14;-6.00
67358;HTU21D;54240;51.096;5.878;2023-06-04T07:46:59;20.24;-6.00
67358;HTU21D;54240;51.096;5.878;2023-06-04T07:49:25;20.28;-6.00
67358;HTU21D;54240;51.096;5.878;2023-06-04T07:51:51;20.36;-6.00
67358;HTU21D;54240;51.096;5.878;2023-06-04T07:54:17;19.08;0.00
67358;HTU21D;54240;51.096;5.878;2023-06-04T07:56:43;20.61;-6.00
67358;HTU21D;54240;51.096;5.878;2023-06-04T07:59:09;20.86;-6.00
67358;HTU21D;54240;51.096;5.878;2023-06-04T08:01:35;20.99;-6.00
67358;HTU21D;54240;51.096;5.878;2023-06-04T08:04:01;21.43;-6.00
67358;HTU21D;54240;51.096;5.878;2023-06-04T08:06:27;22.13;-6.00
67358;HTU21D;54240;51.096;5.878;2023-06-04T08:08:53;23.00;-6.00
67358;HTU21D;54240;51.096;5.878;2023-06-04T08:11:19;23.20;-6.00
67358;HTU21D;54240;51.096;5.878;2023-06-04T08:13:48;23.40;-6.00
67358;HTU21D;54240;51.096;5.878;2023-06-04T08:16:18;23.67;-6.00
67358;HTU21D;54240;51.096;5.878;2023-06-04T08:19:03;23.71;-6.00
67358;HTU21D;54240;51.096;5.878;2023-06-04T08:21:44;23.76;-6.00
67358;HTU21D;54240;51.096;5.878;2023-06-04T08:24:28;23.87;-6.00
67358;HTU21D;54240;51.096;5.878;2023-06-04T08:27:11;24.12;-6.00
67358;HTU21D;54240;51.096;5.878;2023-06-04T08:29:49;24.23;-6.00
67358;HTU21D;54240;51.096;5.878;2023-06-04T08:32:35;24.33;-6.00
67358;HTU21D;54240;51.096;5.878;2023-06-04T08:35:09;24.51;-6.00
67358;HTU21D;54240;51.096;5.878;2023-06-04T08:37:35;24.43;-6.00
67358;HTU21D;54240;51.096;5.878;2023-06-04T08:40:02;0.00;0.00
67358;HTU21D;54240;51.096;5.878;2023-06-04T08:42:31;25.40;-6.00
67358;HTU21D;54240;51.096;5.878;2023-06-04T08:45:00;25.51;-6.00
67358;HTU21D;54240;51.096;5.878;2023-06-04T08:47:29;25.83;-6.00
67358;HTU21D;54240;51.096;5.878;2023-06-04T08:49:59;25.93;-6.00
67358;HTU21D;54240;51.096;5.878;2023-06-04T08:52:27;25.77;-6.00
67358;HTU21D;54240;51.096;5.878;2023-06-04T08:54:54;26.28;-6.00
67358;HTU21D;54240;51.096;5.878;2023-06-04T08:57:21;27.12;-6.00
67358;HTU21D;54240;51.096;5.878;2023-06-04T08:59:48;27.51;-6.00
67358;HTU21D;54240;51.096;5.878;2023-06-04T09:02:14;27.44;-6.00
67358;HTU21D;54240;51.096;5.878;2023-06-04T09:04:42;26.73;-6.00
67358;HTU21D;54240;51.096;5.878;2023-06-04T09:07:11;26.39;-6.00
67358;HTU21D;54240;51.096;5.878;2023-06-04T09:09:40;26.97;-6.00
67358;HTU21D;54240;51.096;5.878;2023-06-04T09:12:10;27.26;-6.00
67358;HTU21D;54240;51.096;5.878;2023-06-04T09:14:37;26.83;-6.00
67358;HTU21D;54240;51.096;5.878;2023-06-04T09:17:03;26.76;-6.00
67358;HTU21D;54240;51.096;5.878;2023-06-04T09:19:29;27.28;-6.00
67358;HTU21D;54240;51.096;5.878;2023-06-04T09:22:00;27.47;-6.00
67358;HTU21D;54240;51.096;5.878;2023-06-04T09:24:44;27.58;-6.00
67358;HTU21D;54240;51.096;5.878;2023-06-04T09:27:19;27.75;-6.00
67358;HTU21D;54240;51.096;5.878;2023-06-04T09:29:50;27.86;-6.00
67358;HTU21D;54240;51.096;5.878;2023-06-04T09:32:29;27.63;-6.00
67358;HTU21D;54240;51.096;5.878;2023-06-04T09:35:11;27.57;-6.00
67358;HTU21D;54240;51.096;5.878;2023-06-04T09:37:39;26.79;-6.00
67358;HTU21D;54240;51.096;5.878;2023-06-04T09:40:06;26.25;-6.00
67358;HTU21D;54240;51.096;5.878;2023-06-04T09:42:46;26.63;-6.00
67358;HTU21D;54240;51.096;5.878;2023-06-04T09:45:29;27.12;-6.00
67358;HTU21D;54240;51.096;5.878;2023-06-04T09:47:57;27.73;-6.00
67358;HTU21D;54240;51.096;5.878;2023-06-04T09:50:30;28.27;-6.00
67358;HTU21D;54240;51.096;5.878;2023-06-04T09:52:56;29.06;-6.00
67358;HTU21D;54240;51.096;5.878;2023-06-04T09:55:22;29.83;-6.00
67358;HTU21D;54240;51.096;5.878;2023-06-04T09:57:50;29.18;-6.00
67358;HTU21D;54240;51.096;5.878;2023-06-04T10:00:18;29.28;-6.00
67358;HTU21D;54240;51.096;5.878;2023-06-04T10:02:45;28.33;-6.00
67358;HTU21D;54240;51.096;5.878;2023-06-04T10:05:15;27.58;-6.00
67358;HTU21D;54240;51.096;5.878;2023-06-04T10:07:46;28.23;-6.00
67358;HTU21D;54240;51.096;5.878;2023-06-04T10:10:16;28.56;-6.00
67358;HTU21D;54240;51.096;5.878;2023-06-04T10:12:46;28.42;-6.00
67358;HTU21D;54240;51.096;5.878;2023-06-04T10:15:17;27.10;-6.00
67358;HTU21D;54240;51.096;5.878;2023-06-04T10:17:43;27.49;-6.00
67358;HTU21D;54240;51.096;5.878;2023-06-04T10:20:10;27.83;-6.00
67358;HTU21D;54240;51.096;5.878;2023-06-04T10:22:37;27.82;-6.00
67358;HTU21D;54240;51.096;5.878;2023-06-04T10:25:04;28.32;-6.00
67358;HTU21D;54240;51.096;5.878;2023-06-04T10:27:32;28.64;-6.00
67358;HTU21D;54240;51.096;5.878;2023-06-04T10:29:58;29.00;-6.00
67358;HTU21D;54240;51.096;5.878;2023-06-04T10:32:28;29.56;-6.00
67358;HTU21D;54240;51.096;5.878;2023-06-04T10:34:55;30.04;-6.00
67358;HTU21D;54240;51.096;5.878;2023-06-04T10:37:27;30.61;-6.00
67358;HTU21D;54240;51.096;5.878;2023-06-04T10:39:56;30.97;-6.00
67358;HTU21D;54240;51.096;5.878;2023-06-04T10:42:24;31.04;-6.00
67358;HTU21D;54240;51.096;5.878;2023-06-04T10:44:52;31.18;-6.00
67358;HTU21D;54240;51.096;5.878;2023-06-04T10:49:45;28.34;-6.00
67358;HTU21D;54240;51.096;5.878;2023-06-04T10:52:11;28.27;-6.00
67358;HTU21D;54240;51.096;5.878;2023-06-04T10:54:37;28.52;-6.00
67358;HTU21D;54240;51.096;5.878;2023-06-04T10:57:14;29.08;-6.00
67358;HTU21D;54240;51.096;5.878;2023-06-04T10:59:41;29.21;-6.00
67358;HTU21D;54240;51.096;5.878;2023-06-04T11:02:08;29.08;-6.00
67358;HTU21D;54240;51.096;5.878;2023-06-04T11:04:36;28.49;-6.00
67358;HTU21D;54240;51.096;5.878;2023-06-04T11:07:07;29.29;-6.00
67358;HTU21D;54240;51.096;5.878;2023-06-04T11:09:37;30.03;-6.00
67358;HTU21D;54240;51.096;5.878;2023-06-04T11:12:05;29.89;-6.00
67358;HTU21D;54240;51.096;5.878;2023-06-04T11:14:31;30.40;-6.00
67358;HTU21D;54240;51.096;5.878;2023-06-04T11:16:57;30.30;-6.00
67358;HTU21D;54240;51.096;5.878;2023-06-04T11:19:23;31.12;-6.00
67358;HTU21D;54240;51.096;5.878;2023-06-04T11:21:49;31.80;-6.00
67358;HTU21D;54240;51.096;5.878;2023-06-04T11:24:16;31.39;-6.00
67358;HTU21D;54240;51.096;5.878;2023-06-04T11:26:43;30.81;-6.00
67358;HTU21D;54240;51.096;5.878;2023-06-04T11:29:11;30.36;-6.00
67358;HTU21D;54240;51.096;5.878;2023-06-04T11:31:45;29.68;-6.00
67358;HTU21D;54240;51.096;5.878;2023-06-04T11:34:25;28.83;-6.00
67358;HTU21D;54240;51.096;5.878;2023-06-04T11:36:52;29.29;-6.00
67358;HTU21D;54240;51.096;5.878;2023-06-04T11:39:22;29.53;-6.00
67358;HTU21D;54240;51.096;5.878;2023-06-04T11:41:51;29.51;-6.00
67358;HTU21D;54240;51.096;5.878;2023-06-04T11:44:19;29.79;-6.00
67358;HTU21D;54240;51.096;5.878;2023-06-04T11:46:46;29.72;-6.00
67358;HTU21D;54240;51.096;5.878;2023-06-04T11:49:18;29.38;-6.00
67358;HTU21D;54240;51.096;5.878;2023-06-04T11:51:49;28.37;-6.00
67358;HTU21D;54240;51.096;5.878;2023-06-04T11:54:20;26.79;-6.00
67358;HTU21D;54240;51.096;5.878;2023-06-04T11:56:49;26.96;-6.00
67358;HTU21D;54240;51.096;5.878;2023-06-04T11:59:17;26.60;-6.00
67358;HTU21D;54240;51.096;5.878;2023-06-04T12:01:46;26.42;-6.00
67358;HTU21D;54240;51.096;5.878;2023-06-04T12:04:17;26.77;-6.00
67358;HTU21D;54240;51.096;5.878;2023-06-04T12:06:55;26.99;-6.00
67358;HTU21D;54240;51.096;5.878;2023-06-04T12:09:28;27.42;-6.00
67358;HTU21D;54240;51.096;5.878;2023-06-04T12:12:05;27.72;-6.00
67358;HTU21D;54240;51.096;5.878;2023-06-04T12:14:32;27.76;-6.00
67358;HTU21D;54240;51.096;5.878;2023-06-04T12:17:06;27.71;-6.00
67358;HTU21D;54240;51.096;5.878;2023-06-04T12:19:44;27.94;-6.00
67358;HTU21D;54240;51.096;5.878;2023-06-04T12:22:10;27.38;-6.00
67358;HTU21D;54240;51.096;5.878;2023-06-04T12:24:56;26.96;-6.00
67358;HTU21D;54240;51.096;5.878;2023-06-04T12:27:25;26.77;-6.00
67358;HTU21D;54240;51.096;5.878;2023-06-04T12:30:03;26.46;-6.00
67358;HTU21D;54240;51.096;5.878;2023-06-04T12:32:34;26.66;-6.00
67358;HTU21D;54240;51.096;5.878;2023-06-04T12:35:01;26.67;-6.00
67358;HTU21D;54240;51.096;5.878;2023-06-04T12:37:27;26.67;-6.00
67358;HTU21D;54240;51.096;5.878;2023-06-04T12:39:54;26.49;-6.00
67358;HTU21D;54240;51.096;5.878;2023-06-04T12:42:20;0.00;-6.00
67358;HTU21D;54240;51.096;5.878;2023-06-04T12:44:46;26.51;-6.00
67358;HTU21D;54240;51.096;5.878;2023-06-04T12:47:12;27.13;-6.00
67358;HTU21D;54240;51.096;5.878;2023-06-04T12:49:38;27.47;-6.00
67358;HTU21D;54240;51.096;5.878;2023-06-04T12:52:05;27.82;-6.00
67358;HTU21D;54240;51.096;5.878;2023-06-04T12:54:31;27.72;-6.00
67358;HTU21D;54240;51.096;5.878;2023-06-04T12:56:58;27.69;-6.00
67358;HTU21D;54240;51.096;5.878;2023-06-04T12:59:26;27.58;-6.00
67358;HTU21D;54240;51.096;5.878;2023-06-04T13:01:52;27.29;-6.00
67358;HTU21D;54240;51.096;5.878;2023-06-04T13:04:19;27.61;-6.00
67358;HTU21D;54240;51.096;5.878;2023-06-04T13:06:45;27.86;-6.00
67358;HTU21D;54240;51.096;5.878;2023-06-04T13:09:14;27.95;-6.00
67358;HTU21D;54240;51.096;5.878;2023-06-04T13:11:42;28.00;-6.00
67358;HTU21D;54240;51.096;5.878;2023-06-04T13:14:09;27.78;-6.00
67358;HTU21D;54240;51.096;5.878;2023-06-04T13:16:37;26.67;-6.00
67358;HTU21D;54240;51.096;5.878;2023-06-04T13:19:03;26.53;-6.00
67358;HTU21D;54240;51.096;5.878;2023-06-04T13:21:30;26.47;-6.00
67358;HTU21D;54240;51.096;5.878;2023-06-04T13:23:56;26.54;-6.00
67358;HTU21D;54240;51.096;5.878;2023-06-04T13:26:22;26.87;-6.00
67358;HTU21D;54240;51.096;5.878;2023-06-04T13:28:48;26.99;-6.00
67358;HTU21D;54240;51.096;5.878;2023-06-04T13:31:14;27.08;-6.00
67358;HTU21D;54240;51.096;5.878;2023-06-04T13:33:41;27.26;-6.00
67358;HTU21D;54240;51.096;5.878;2023-06-04T13:36:07;27.69;-6.00
67358;HTU21D;54240;51.096;5.878;2023-06-04T13:38:33;27.81;-6.00
67358;HTU21D;54240;51.096;5.878;2023-06-04T13:40:59;27.54;-6.00
67358;HTU21D;54240;51.096;5.878;2023-06-04T13:43:25;27.89;-6.00
67358;HTU21D;54240;51.096;5.878;2023-06-04T13:45:51;28.29;-6.00
67358;HTU21D;54240;51.096;5.878;2023-06-04T13:48:18;28.50;-6.00
67358;HTU21D;54240;51.096;5.878;2023-06-04T13:50:44;27.96;-6.00
67358;HTU21D;54240;51.096;5.878;2023-06-04T13:53:11;27.73;-6.00
67358;HTU21D;54240;51.096;5.878;2023-06-04T13:55:39;27.66;-6.00
67358;HTU21D;54240;51.096;5.878;2023-06-04T13:58:05;27.73;-6.00
67358;HTU21D;54240;51.096;5.878;2023-06-04T14:00:33;27.91;-6.00
67358;HTU21D;54240;51.096;5.878;2023-06-04T14:02:59;27.97;-6.00
67358;HTU21D;54240;51.096;5.878;2023-06-04T14:05:25;28.23;-6.00
67358;HTU21D;54240;51.096;5.878;2023-06-04T14:07:53;28.24;-6.00
67358;HTU21D;54240;51.096;5.878;2023-06-04T14:10:19;28.24;-6.00
67358;HTU21D;54240;51.096;5.878;2023-06-04T14:12:45;28.10;-6.00
67358;HTU21D;54240;51.096;5.878;2023-06-04T14:15:11;28.11;-6.00
67358;HTU21D;54240;51.096;5.878;2023-06-04T14:17:40;27.35;-6.00
67358;HTU21D;54240;51.096;5.878;2023-06-04T14:20:06;27.59;-6.00
67358;HTU21D;54240;51.096;5.878;2023-06-04T14:22:36;27.70;-6.00
67358;HTU21D;54240;51.096;5.878;2023-06-04T14:25:04;27.68;-6.00
67358;HTU21D;54240;51.096;5.878;2023-06-04T14:27:30;27.49;-6.00
67358;HTU21D;54240;51.096;5.878;2023-06-04T14:29:56;27.60;-6.00
67358;HTU21D;54240;51.096;5.878;2023-06-04T14:32:23;27.94;-6.00
67358;HTU21D;54240;51.096;5.878;2023-06-04T14:34:49;28.39;-6.00
67358;HTU21D;54240;51.096;5.878;2023-06-04T14:37:15;28.31;-6.00
67358;HTU21D;54240;51.096;5.878;2023-06-04T14:39:41;28.20;-6.00
67358;HTU21D;54240;51.096;5.878;2023-06-04T14:42:07;27.85;-6.00
67358;HTU21D;54240;51.096;5.878;2023-06-04T14:44:33;28.20;-6.00
67358;HTU21D;54240;51.096;5.878;2023-06-04T14:47:00;28.42;-6.00
67358;HTU21D;54240;51.096;5.878;2023-06-04T14:49:26;28.40;-6.00
67358;HTU21D;54240;51.096;5.878;2023-06-04T14:51:52;28.08;-6.00
67358;HTU21D;54240;51.096;5.878;2023-06-04T14:54:18;27.90;-6.00
67358;HTU21D;54240;51.096;5.878;2023-06-04T14:56:44;28.16;-6.00
67358;HTU21D;54240;51.096;5.878;2023-06-04T14:59:10;28.69;-6.00
67358;HTU21D;54240;51.096;5.878;2023-06-04T15:01:38;28.79;-6.00
67358;HTU21D;54240;51.096;5.878;2023-06-04T15:04:07;27.94;-6.00
67358;HTU21D;54240;51.096;5.878;2023-06-04T15:06:34;27.43;-6.00
67358;HTU21D;54240;51.096;5.878;2023-06-04T15:09:00;27.12;-6.00
67358;HTU21D;54240;51.096;5.878;2023-06-04T15:11:27;27.10;-6.00
67358;HTU21D;54240;51.096;5.878;2023-06-04T15:13:53;26.90;-6.00
67358;HTU21D;54240;51.096;5.878;2023-06-04T15:16:20;26.85;-6.00
67358;HTU21D;54240;51.096;5.878;2023-06-04T15:18:47;27.10;-6.00
67358;HTU21D;54240;51.096;5.878;2023-06-04T15:21:13;27.15;-6.00
67358;HTU21D;54240;51.096;5.878;2023-06-04T15:23:40;26.71;-6.00